Mineral Point, WI

4:34 PM CST on January 19, 2018 (GMT -0600)
Iowa County

Weather History for KMRJ - February, 2014

Change the Weather History Date:

Monday, February 17, 2014

  Actual Average (KLNR) Record (KLNR)
Temperature  
Mean Temperature 26 °F -  
Max Temperature 32 °F 33 °F 61 °F (2017)
Min Temperature 21 °F 17 °F -9 °F (2006)
Degree Days  
Heating Degree Days 38    
Moisture  
Dew Point 21 °F    
Average Humidity 83    
Maximum Humidity 86    
Minimum Humidity 74    
Precipitation  
Precipitation 0.00 in - - ()
Sea Level Pressure  
Sea Level Pressure 29.84 in    
Wind  
Wind Speed 14 mph (SSE)    
Max Wind Speed 28 mph    
Max Gust Speed 34 mph    
Visibility 5 miles    
Events Snow    
Averages and records for this station are not official NWS values.
T = Trace of Precipitation, MM = Missing Value Source: NWS Daily Summary

Daily Weather History Graph

Daily Weather History Graph

Search for Another Location

Airport or City:

Trip Planner

Search our weather history database for the weather conditions in past years. The results will help you decide how hot, cold, wet, or windy it might be!

Date:

Astronomy

Feb. 17, 2014 Rise Set
Actual Time 6:55 AM CST 5:35 PM CST
Civil Twilight 6:26 AM CST 6:04 PM CST
Nautical Twilight 5:53 AM CST 6:37 PM CST
Astronomical Twilight 5:20 AM CST 7:10 PM CST
Moon 8:35 PM CST (2/17) 7:51 AM CST (2/17)
Length of Visible Light 11h 37m
Length of Day
10h 39m
Waning Gibbous, 93% of the Moon is Illuminated
Feb 17
Waning Gibbous
Feb 22
Last Quarter
Mar 1
New
Mar 8
First Quarter
Mar 16
Full

Hourly Weather History & Observations

Time (CST) Temp. Windchill Dew Point Humidity Pressure Visibility Wind Dir Wind Speed Gust Speed Precip Events Conditions
12:15 AM 21.2 °F 8.9 °F 14.0 °F 74% 30.13 in 2.0 mi ESE 12.7 mph - N/A Snow Light Snow
12:35 AM 21.2 °F 7.8 °F 17.6 °F 86% 30.14 in 1.0 mi SE 15.0 mph - N/A Snow Snow
12:55 AM 21.2 °F 9.5 °F 17.6 °F 86% 30.14 in 1.5 mi SE 11.5 mph - N/A Snow Light Snow
1:15 AM 21.2 °F 9.5 °F 17.6 °F 86% 30.13 in 7.0 mi SE 11.5 mph - N/A   Overcast
1:30 AM 21.2 °F 8.9 °F 17.6 °F 86% 30.13 in 10.0 mi SE 12.7 mph - N/A   Overcast
1:55 AM 21.2 °F 8.9 °F 17.6 °F 86% 30.13 in 10.0 mi SE 12.7 mph - N/A   Overcast
2:10 AM 21.2 °F 8.9 °F 17.6 °F 86% 30.13 in 10.0 mi SE 12.7 mph - N/A   Overcast
2:35 AM 21.2 °F 7.8 °F 17.6 °F 86% 30.11 in 10.0 mi ESE 15.0 mph 19.6 mph N/A   Overcast
2:55 AM 21.2 °F 8.3 °F 17.6 °F 86% 30.10 in 10.0 mi SE 13.8 mph - N/A   Overcast
3:15 AM 21.2 °F 7.8 °F 17.6 °F 86% 30.10 in 10.0 mi SE 15.0 mph 19.6 mph N/A   Overcast
3:35 AM 21.2 °F 8.9 °F 17.6 °F 86% 30.09 in 10.0 mi SE 12.7 mph - N/A   Overcast
3:55 AM 21.2 °F 8.9 °F 17.6 °F 86% 30.07 in 10.0 mi ESE 12.7 mph - N/A   Overcast
4:15 AM 21.2 °F 8.3 °F 17.6 °F 86% 30.04 in 10.0 mi ESE 13.8 mph - N/A   Overcast
4:35 AM 23.0 °F 9.6 °F 17.6 °F 80% 30.03 in 7.0 mi SE 16.1 mph 23.0 mph N/A   Overcast
4:55 AM 23.0 °F 8.3 °F 17.6 °F 80% 30.02 in 7.0 mi SE 19.6 mph 24.2 mph N/A   Overcast
5:15 AM 23.0 °F 6.0 °F 17.6 °F 80% 29.96 in 4.0 mi ESE 27.6 mph 34.5 mph N/A   Haze
5:35 AM 23.0 °F 7.2 °F 17.6 °F 80% 29.95 in 5.0 mi SE 23.0 mph 27.6 mph N/A   Haze
5:50 AM 23.0 °F 8.3 °F 17.6 °F 80% 29.96 in 4.0 mi SE 19.6 mph 24.2 mph N/A   Haze
6:15 AM 23.0 °F 8.0 °F 17.6 °F 80% 29.95 in 5.0 mi SE 20.7 mph 29.9 mph N/A   Haze
6:35 AM 23.0 °F 8.0 °F 17.6 °F 80% 29.94 in 7.0 mi SE 20.7 mph 26.5 mph N/A   Overcast
6:55 AM 23.0 °F 7.6 °F 17.6 °F 80% 29.90 in 3.0 mi ESE 21.9 mph 29.9 mph N/A   Haze
7:15 AM 23.0 °F 6.9 °F 17.6 °F 80% 29.90 in 3.0 mi SE 24.2 mph 32.2 mph N/A   Haze
7:35 AM 23.0 °F 7.6 °F 17.6 °F 80% 29.90 in 1.0 mi SE 21.9 mph 29.9 mph N/A Snow Light Snow
7:55 AM 23.0 °F 8.7 °F 19.4 °F 86% 29.89 in 0.8 mi SE 18.4 mph 25.3 mph N/A Snow Light Snow
8:15 AM 23.0 °F 8.7 °F 19.4 °F 86% 29.88 in 1.5 mi SE 18.4 mph 25.3 mph N/A Snow Light Snow
8:35 AM 23.0 °F 8.0 °F 19.4 °F 86% 29.86 in 3.0 mi SE 20.7 mph 26.5 mph N/A   Haze
8:55 AM 23.0 °F 8.3 °F 19.4 °F 86% 29.85 in 4.0 mi SE 19.6 mph 23.0 mph N/A   Overcast
9:15 AM 23.0 °F 9.6 °F 19.4 °F 86% 29.85 in 5.0 mi SE 16.1 mph 24.2 mph N/A   Overcast
9:35 AM 24.8 °F 11.1 °F 21.2 °F 86% 29.83 in 1.0 mi SE 18.4 mph 26.5 mph N/A Snow Light Snow
9:55 AM 24.8 °F 11.9 °F 21.2 °F 86% 29.82 in 1.0 mi SE 16.1 mph - N/A Snow Light Snow
10:15 AM 24.8 °F 11.5 °F 21.2 °F 86% 29.82 in 2.0 mi SE 17.3 mph 20.7 mph N/A Snow Light Snow
10:30 AM 24.8 °F 12.4 °F 21.2 °F 86% 29.81 in 1.0 mi ESE 15.0 mph 20.7 mph N/A Snow Light Snow
10:55 AM 26.6 °F 15.7 °F 21.2 °F 80% 29.81 in 1.5 mi SE 12.7 mph - N/A Snow Light Snow
11:15 AM 26.6 °F 14.7 °F 21.2 °F 80% 29.80 in 1.0 mi SE 15.0 mph - N/A Snow Light Snow
11:35 AM 26.6 °F 15.7 °F 21.2 °F 80% 29.79 in 0.2 mi SE 12.7 mph 18.4 mph N/A Snow Snow
11:55 AM 26.6 °F 14.3 °F 21.2 °F 80% 29.76 in 0.2 mi SE 16.1 mph - N/A Snow Snow
12:15 PM 26.6 °F 15.7 °F 21.2 °F 80% 29.75 in 0.5 mi SSE 12.7 mph - N/A Snow Snow
12:35 PM 26.6 °F 16.2 °F 21.2 °F 80% 29.73 in 0.5 mi SSE 11.5 mph 18.4 mph N/A Snow Light Snow
12:55 PM 26.6 °F 14.7 °F 21.2 °F 80% 29.73 in 0.5 mi SSE 15.0 mph - N/A Snow Snow
1:15 PM 26.6 °F 14.3 °F 21.2 °F 80% 29.72 in 1.0 mi SSE 16.1 mph - N/A Snow Light Snow
1:35 PM 26.6 °F 15.7 °F 21.2 °F 80% 29.71 in 1.8 mi SSE 12.7 mph - N/A Snow Light Snow
1:55 PM 26.6 °F 15.7 °F 21.2 °F 80% 29.70 in 4.0 mi SSE 12.7 mph - N/A   Overcast
2:15 PM 26.6 °F 17.5 °F 21.2 °F 80% 29.69 in 4.0 mi SSE 9.2 mph - N/A Snow Light Snow
2:35 PM 26.6 °F 18.2 °F 21.2 °F 80% 29.68 in 3.0 mi SSE 8.1 mph - N/A Snow Light Snow
2:55 PM 26.6 °F 19.1 °F 21.2 °F 80% 29.68 in 1.8 mi SSE 6.9 mph - N/A Snow Light Snow
3:15 PM 26.6 °F 19.1 °F 21.2 °F 80% 29.67 in 3.0 mi South 6.9 mph - N/A Snow Light Snow
3:35 PM 26.6 °F 20.0 °F 21.2 °F 80% 29.67 in 4.0 mi South 5.8 mph - N/A Snow Light Snow
3:55 PM 26.6 °F 20.0 °F 21.2 °F 80% 29.67 in 5.0 mi South 5.8 mph - N/A Snow Light Snow
4:15 PM 26.6 °F 21.2 °F 21.2 °F 80% 29.66 in 5.0 mi South 4.6 mph - N/A   Haze
4:35 PM 26.6 °F 20.0 °F 21.2 °F 80% 29.67 in 3.0 mi SW 5.8 mph - N/A Snow Light Snow
4:55 PM 26.6 °F 22.6 °F 21.2 °F 80% 29.68 in 5.0 mi WSW 3.5 mph - N/A Snow Light Snow
5:15 PM 26.6 °F 19.1 °F 23.0 °F 86% 29.68 in 4.0 mi WSW 6.9 mph - N/A   Overcast
5:35 PM 26.6 °F 19.1 °F 23.0 °F 86% 29.68 in 5.0 mi West 6.9 mph - N/A   Overcast
5:55 PM 26.6 °F 18.2 °F 23.0 °F 86% 29.68 in 7.0 mi West 8.1 mph - N/A   Overcast
6:15 PM 26.6 °F 16.8 °F 23.0 °F 86% 29.68 in 7.0 mi West 10.4 mph - N/A   Overcast
6:35 PM 28.4 °F 19.1 °F 23.0 °F 80% 29.68 in 7.0 mi West 10.4 mph - N/A   Overcast
6:55 PM 28.4 °F 19.1 °F 23.0 °F 80% 29.69 in 7.0 mi West 10.4 mph - N/A   Overcast
7:15 PM 28.4 °F 19.1 °F 24.8 °F 86% 29.70 in 5.0 mi West 10.4 mph - N/A   Overcast
7:30 PM 28.4 °F 20.4 °F 24.8 °F 86% 29.70 in 5.0 mi WNW 8.1 mph - N/A   Overcast
7:55 PM 28.4 °F 19.7 °F 24.8 °F 86% 29.70 in 5.0 mi WNW 9.2 mph - N/A   Overcast
8:10 PM 30.2 °F 19.8 °F 26.6 °F 86% 29.72 in 7.0 mi WNW 13.8 mph 19.6 mph N/A   Overcast
8:35 PM 30.2 °F 20.2 °F 26.6 °F 86% 29.73 in 7.0 mi NW 12.7 mph 19.6 mph N/A   Overcast
8:55 PM 32.0 °F 22.1 °F 26.6 °F 80% 29.74 in 7.0 mi NW 13.8 mph 21.9 mph N/A   Overcast
9:15 PM 30.2 °F 21.3 °F 26.6 °F 86% 29.76 in 7.0 mi NW 10.4 mph - N/A   Overcast
9:35 PM 30.2 °F 20.8 °F 26.6 °F 86% 29.77 in 7.0 mi WNW 11.5 mph 18.4 mph N/A   Overcast
9:55 PM 30.2 °F 21.3 °F 26.6 °F 86% 29.77 in 7.0 mi WNW 10.4 mph 16.1 mph N/A   Overcast
10:15 PM 32.0 °F 24.8 °F 26.6 °F 80% 29.77 in 7.0 mi WNW 8.1 mph - N/A   Overcast
10:35 PM 32.0 °F 25.6 °F 26.6 °F 80% 29.78 in 7.0 mi WNW 6.9 mph - N/A   Overcast
10:55 PM 32.0 °F 23.0 °F 26.6 °F 80% 29.79 in 10.0 mi WNW 11.5 mph - N/A   Overcast
11:15 PM 32.0 °F 23.0 °F 26.6 °F 80% 29.80 in 10.0 mi WNW 11.5 mph 19.6 mph N/A   Overcast
11:35 PM 30.2 °F 21.3 °F 26.6 °F 86% 29.80 in 10.0 mi NW 10.4 mph - N/A   Overcast
11:55 PM 30.2 °F 24.3 °F 26.6 °F 86% 29.81 in 10.0 mi WNW 5.8 mph - N/A   Overcast